Teutopolis, Illinois
Current Conditions -  °F | °C
As of 10:15 PM on Friday 24 Oct 2014 (Local Time) from K1H2 Reporting Station
Broken Clouds Broken Clouds  
Wind Chill: 57°   Ceiling: 4400
Heat Index: 57°   Visibility: 10mi
Dew Point: 51°   Wind: 5mph
Humidity: 81%   Direction: 170°S
Pressure: 30.02"   Gusts: NA
Location:  39.13°N, 88.47°W
Report Text: K1H2 250315Z AUTO 17004KT 10SM BKN044 14/11 A3002 RMK AO2 T01390106
Loading
Personal Weather Stations






























Interactive Weather Map
Tropical Storm Tracking
New forecast layout! Learn more

10-Day Weather Forecast

Advertisements
Track Severe Weather on mobile